createdAt,value
2023-05-15T00:00:44.196Z,7.70
2023-05-15T00:03:12.634Z,8.70
2023-05-15T00:05:41.735Z,11.05
2023-05-15T00:08:09.417Z,12.88
2023-05-15T00:10:38.296Z,8.45
2023-05-15T00:13:07.472Z,8.68
2023-05-15T00:15:35.176Z,8.15
2023-05-15T00:18:03.315Z,9.27
2023-05-15T00:20:31.237Z,10.95
2023-05-15T00:23:00.543Z,11.35
2023-05-15T00:25:28.245Z,9.55
2023-05-15T00:27:56.234Z,9.95
2023-05-15T00:30:24.044Z,10.45
2023-05-15T00:32:52.118Z,11.52
2023-05-15T00:35:19.765Z,9.55
2023-05-15T00:37:47.778Z,12.07
2023-05-15T00:40:22.153Z,9.50
2023-05-15T00:42:51.501Z,8.55
2023-05-15T00:45:20.536Z,9.27
2023-05-15T00:47:50.029Z,9.48
2023-05-15T00:50:18.229Z,8.98
2023-05-15T00:52:46.704Z,10.82
2023-05-15T00:55:16.135Z,8.88
2023-05-15T00:57:45.199Z,11.73
2023-05-15T01:00:17.265Z,13.55
2023-05-15T01:02:45.499Z,9.23
2023-05-15T01:05:13.184Z,7.88
2023-05-15T01:07:50.379Z,12.07
2023-05-15T01:10:22.593Z,11.23
2023-05-15T01:12:52.061Z,11.15
2023-05-15T01:15:20.157Z,9.75
2023-05-15T01:17:47.902Z,11.15
2023-05-15T01:20:20.069Z,10.98
2023-05-15T01:23:00.822Z,8.75
2023-05-15T01:28:33.121Z,9.88
2023-05-15T01:31:10.672Z,8.05
2023-05-15T01:33:43.819Z,8.52
2023-05-15T01:36:15.619Z,9.75
2023-05-15T01:38:48.638Z,15.55
2023-05-15T01:41:21.044Z,13.20
2023-05-15T01:43:57.146Z,12.77
2023-05-15T01:46:30.940Z,15.68
2023-05-15T01:49:02.642Z,13.25
2023-05-15T01:51:32.324Z,10.27
2023-05-15T01:54:01.191Z,8.87
2023-05-15T01:56:30.631Z,10.55
2023-05-15T01:59:01.625Z,15.38
2023-05-15T02:01:31.278Z,12.80
2023-05-15T02:03:59.272Z,10.50
2023-05-15T02:06:27.609Z,9.20
2023-05-15T02:08:58.173Z,10.50
2023-05-15T02:11:26.191Z,11.68
2023-05-15T02:13:55.914Z,12.80
2023-05-15T02:16:25.763Z,12.10
2023-05-15T02:18:53.630Z,11.80
2023-05-15T02:21:21.694Z,12.60
2023-05-15T02:23:49.303Z,14.57
2023-05-15T02:26:31.635Z,11.57
2023-05-15T02:29:11.256Z,11.55
2023-05-15T02:31:49.022Z,10.27
2023-05-15T02:34:25.153Z,10.25
2023-05-15T02:36:54.564Z,12.73
2023-05-15T02:39:24.964Z,13.75
2023-05-15T02:41:54.352Z,9.57
2023-05-15T02:44:23.746Z,11.48
2023-05-15T02:46:56.055Z,11.88
2023-05-15T02:49:24.161Z,13.85
2023-05-15T02:51:52.062Z,10.80
2023-05-15T02:54:20.361Z,11.30
2023-05-15T02:56:48.088Z,10.23
2023-05-15T02:59:20.213Z,12.77
2023-05-15T03:01:48.351Z,12.65
2023-05-15T03:04:18.554Z,9.27
2023-05-15T03:06:46.248Z,11.45
2023-05-15T03:09:14.235Z,11.45
2023-05-15T03:11:41.858Z,14.52
2023-05-15T03:14:09.518Z,11.40
2023-05-15T03:16:38.761Z,12.30
2023-05-15T03:19:06.995Z,10.95
2023-05-15T03:21:36.116Z,11.88
2023-05-15T03:24:05.017Z,11.43
2023-05-15T03:26:33.134Z,15.55
2023-05-15T03:29:02.702Z,12.85
2023-05-15T03:31:30.407Z,11.88
2023-05-15T03:33:58.099Z,12.48
2023-05-15T03:36:26.180Z,15.60
2023-05-15T03:38:55.220Z,12.00
2023-05-15T03:41:23.441Z,11.43
2023-05-15T03:43:51.122Z,12.13
2023-05-15T03:46:20.222Z,12.45
2023-05-15T03:48:47.957Z,11.45
2023-05-15T03:51:16.110Z,10.93
2023-05-15T03:53:43.728Z,14.13
2023-05-15T03:56:13.396Z,14.02
2023-05-15T03:58:41.818Z,12.02
2023-05-15T04:01:10.061Z,11.65
2023-05-15T04:03:37.746Z,11.38
2023-05-15T04:06:06.213Z,13.02
2023-05-15T04:08:34.244Z,13.70
2023-05-15T04:11:02.220Z,12.05
2023-05-15T04:13:31.285Z,13.73
2023-05-15T04:16:00.248Z,11.75
2023-05-15T04:18:28.020Z,13.82
2023-05-15T04:20:56.387Z,16.83
2023-05-15T04:23:24.030Z,15.38
2023-05-15T04:25:54.092Z,15.50
2023-05-15T04:28:22.039Z,14.75
2023-05-15T04:30:51.511Z,9.63
2023-05-15T04:33:19.167Z,12.18
2023-05-15T04:35:48.049Z,11.35
2023-05-15T04:38:16.392Z,11.05
2023-05-15T04:40:44.176Z,15.80
2023-05-15T04:43:12.408Z,15.65
2023-05-15T04:45:40.097Z,11.88
2023-05-15T04:48:09.235Z,13.98
2023-05-15T04:50:37.595Z,11.20
2023-05-15T04:53:05.421Z,15.35
2023-05-15T04:55:33.796Z,13.05
2023-05-15T04:58:01.558Z,10.38
2023-05-15T05:00:29.546Z,12.75
2023-05-15T05:02:57.597Z,14.90
2023-05-15T05:05:26.981Z,11.40
2023-05-15T05:07:54.795Z,10.98
2023-05-15T05:10:23.499Z,11.43
2023-05-15T05:12:51.180Z,12.15
2023-05-15T05:15:19.535Z,10.68
2023-05-15T05:17:47.266Z,12.77
2023-05-15T05:20:15.418Z,8.40
2023-05-15T05:22:46.031Z,11.10
2023-05-15T05:25:13.704Z,13.82
2023-05-15T05:27:41.343Z,8.07
2023-05-15T05:30:10.618Z,9.27
2023-05-15T05:32:38.360Z,11.38
2023-05-15T05:35:07.192Z,12.10
2023-05-15T05:37:35.084Z,10.13
2023-05-15T05:40:09.041Z,13.32
2023-05-15T05:42:36.769Z,12.15
2023-05-15T05:45:04.625Z,13.43
2023-05-15T05:47:33.312Z,9.50
2023-05-15T05:50:01.082Z,10.23
2023-05-15T05:52:29.325Z,13.50
2023-05-15T05:54:57.384Z,15.70
2023-05-15T05:57:26.570Z,15.73
2023-05-15T05:59:54.295Z,12.25
2023-05-15T06:02:22.513Z,15.85
2023-05-15T06:04:51.044Z,11.80
2023-05-15T06:07:18.681Z,12.48
2023-05-15T06:09:49.668Z,10.48
2023-05-15T06:12:17.341Z,10.07
2023-05-15T06:14:46.381Z,9.13
2023-05-15T06:17:14.557Z,12.50
2023-05-15T06:19:42.266Z,14.95
2023-05-15T06:22:09.949Z,9.93
2023-05-15T06:24:38.202Z,12.98
2023-05-15T06:27:06.252Z,9.98
2023-05-15T06:29:33.921Z,12.77
2023-05-15T06:32:04.223Z,10.65
2023-05-15T06:34:31.896Z,14.15
2023-05-15T06:36:59.568Z,13.73
2023-05-15T06:39:27.581Z,11.50
2023-05-15T06:41:59.088Z,10.13
2023-05-15T06:44:27.367Z,6.97
2023-05-15T06:46:55.370Z,7.93
2023-05-15T06:49:25.549Z,8.35
2023-05-15T06:51:55.233Z,7.78
2023-05-15T06:54:22.916Z,14.70
2023-05-15T06:56:51.142Z,8.50
2023-05-15T06:59:18.814Z,9.68
2023-05-15T07:01:46.481Z,11.77
2023-05-15T07:04:14.741Z,8.80
2023-05-15T07:06:44.326Z,8.20
2023-05-15T07:09:12.054Z,7.65
2023-05-15T07:11:40.461Z,11.25
2023-05-15T07:14:08.460Z,8.15
2023-05-15T07:16:36.165Z,8.90
2023-05-15T07:19:04.274Z,12.93
2023-05-15T07:21:32.365Z,9.38
2023-05-15T07:24:01.636Z,9.60
2023-05-15T07:26:36.365Z,8.73
2023-05-15T07:29:09.870Z,9.90
2023-05-15T07:31:40.243Z,6.25
2023-05-15T07:34:07.941Z,8.35
2023-05-15T07:36:35.993Z,6.88
2023-05-15T07:39:05.252Z,8.63
2023-05-15T07:41:34.181Z,8.10
2023-05-15T07:44:01.802Z,7.78
2023-05-15T07:46:29.503Z,6.07
2023-05-15T07:48:58.063Z,7.40
2023-05-15T07:51:25.806Z,8.98
2023-05-15T07:53:53.412Z,6.15
2023-05-15T07:56:23.083Z,8.23
2023-05-15T07:58:50.787Z,11.57
2023-05-15T08:01:18.438Z,6.38
2023-05-15T08:03:46.680Z,8.57
2023-05-15T08:06:14.348Z,10.38
2023-05-15T08:08:42.903Z,11.38
2023-05-15T08:11:10.517Z,12.20
2023-05-15T08:13:39.544Z,10.60
2023-05-15T08:16:07.972Z,18.08
2023-05-15T08:18:35.760Z,14.05
2023-05-15T08:21:04.760Z,17.25
2023-05-15T08:23:32.898Z,14.20
2023-05-15T08:26:00.550Z,11.30
2023-05-15T08:28:28.275Z,8.90
2023-05-15T08:30:58.656Z,17.67
2023-05-15T08:33:26.317Z,14.98
2023-05-15T08:35:53.982Z,14.00
2023-05-15T08:38:23.110Z,15.30
2023-05-15T08:40:53.823Z,11.00
2023-05-15T08:43:24.081Z,10.60
2023-05-15T08:45:53.592Z,9.90
2023-05-15T08:48:26.933Z,14.23
2023-05-15T08:50:57.686Z,10.63
2023-05-15T08:53:26.231Z,14.45
2023-05-15T08:55:54.482Z,9.40
2023-05-15T08:58:25.941Z,10.65
2023-05-15T09:00:53.683Z,13.93
2023-05-15T09:03:23.961Z,16.52
2023-05-15T09:05:53.125Z,13.05
2023-05-15T09:08:24.182Z,12.60
2023-05-15T09:10:55.053Z,12.93
2023-05-15T09:13:22.798Z,11.63
2023-05-15T09:15:51.003Z,11.48
2023-05-15T09:18:19.317Z,9.40
2023-05-15T09:20:48.369Z,8.70
2023-05-15T09:23:27.410Z,7.68
2023-05-15T09:25:56.854Z,7.35
2023-05-15T09:28:30.559Z,8.80
2023-05-15T09:31:00.426Z,9.45
2023-05-15T09:33:35.242Z,6.80
2023-05-15T09:36:05.771Z,13.90
2023-05-15T09:41:05.998Z,12.20
2023-05-15T09:43:35.858Z,9.20
2023-05-15T09:46:03.811Z,10.80
2023-05-15T09:48:33.267Z,7.63
2023-05-15T09:51:02.189Z,11.77
2023-05-15T09:53:31.754Z,14.52
2023-05-15T09:55:59.998Z,12.52
2023-05-15T09:58:27.680Z,8.93
2023-05-15T10:00:55.651Z,14.13
2023-05-15T10:03:24.469Z,16.75
2023-05-15T10:06:01.619Z,21.17
2023-05-15T10:08:30.259Z,20.38
2023-05-15T10:11:01.597Z,24.77
2023-05-15T10:13:33.068Z,17.70
2023-05-15T10:16:03.553Z,17.67
2023-05-15T10:21:04.626Z,12.07
2023-05-15T10:23:34.153Z,17.63
2023-05-15T10:26:07.026Z,8.77
2023-05-15T10:28:36.226Z,10.40
2023-05-15T10:31:05.593Z,9.45
2023-05-15T10:33:34.158Z,14.18
2023-05-15T10:36:03.306Z,6.47
2023-05-15T10:38:31.899Z,10.13
2023-05-15T10:41:15.760Z,8.98
2023-05-15T10:43:47.272Z,10.18
2023-05-15T10:46:16.284Z,5.15
2023-05-15T10:48:44.463Z,8.27
2023-05-15T10:51:18.201Z,8.88
2023-05-15T10:53:46.627Z,7.13
2023-05-15T10:56:16.506Z,8.98
2023-05-15T10:58:50.298Z,11.48
2023-05-15T11:01:28.675Z,10.68
2023-05-15T11:04:10.627Z,9.13
2023-05-15T11:06:38.998Z,6.03
2023-05-15T11:09:36.145Z,4.43
2023-05-15T11:12:05.313Z,5.90
2023-05-15T11:14:37.251Z,7.38
2023-05-15T11:17:07.194Z,8.05
2023-05-15T11:19:38.279Z,8.00
2023-05-15T11:22:21.976Z,4.43
2023-05-15T11:24:54.912Z,6.40
2023-05-15T11:27:24.501Z,21.38
2023-05-15T11:30:11.728Z,19.02
2023-05-15T11:32:49.133Z,6.72
2023-05-15T11:35:21.944Z,5.68
2023-05-15T11:37:51.157Z,3.72
2023-05-15T11:40:24.801Z,6.38
2023-05-15T11:43:06.477Z,4.95
2023-05-15T11:45:37.177Z,5.60
2023-05-15T11:48:08.626Z,4.90
2023-05-15T11:50:36.673Z,11.98
2023-05-15T11:53:06.659Z,4.43
2023-05-15T11:55:35.779Z,2.97
2023-05-15T11:58:04.334Z,3.40
2023-05-15T12:00:32.612Z,3.55
2023-05-15T12:03:03.748Z,4.50
2023-05-15T12:05:31.942Z,3.55
2023-05-15T12:08:00.120Z,2.75
2023-05-15T12:10:28.024Z,2.83
2023-05-15T12:12:56.130Z,3.28
2023-05-15T12:15:24.242Z,2.55
2023-05-15T12:17:52.059Z,5.03
2023-05-15T12:20:21.394Z,7.22
2023-05-15T12:22:49.454Z,3.53
2023-05-15T12:25:17.650Z,3.25
2023-05-15T12:27:45.801Z,2.42
2023-05-15T12:30:16.733Z,2.20
2023-05-15T12:32:44.987Z,3.58
2023-05-15T12:35:13.212Z,2.72
2023-05-15T12:37:42.708Z,2.28
2023-05-15T12:40:12.273Z,3.13
2023-05-15T12:42:41.380Z,4.43
2023-05-15T12:45:20.012Z,2.55
2023-05-15T12:47:49.665Z,1.70
2023-05-15T12:50:19.845Z,2.10
2023-05-15T12:52:52.955Z,2.78
2023-05-15T12:55:26.216Z,2.22
2023-05-15T12:57:54.437Z,2.95
2023-05-15T13:00:22.824Z,4.15
2023-05-15T13:02:52.448Z,2.72
2023-05-15T13:05:20.670Z,3.20
2023-05-15T13:07:49.819Z,3.45
2023-05-15T13:10:18.611Z,3.47
2023-05-15T13:12:47.706Z,7.80
2023-05-15T13:15:35.676Z,9.88
2023-05-15T13:18:05.031Z,4.25
2023-05-15T13:20:36.531Z,2.17
2023-05-15T13:23:06.005Z,3.88
2023-05-15T13:25:33.966Z,5.18
2023-05-15T13:28:03.867Z,2.92
2023-05-15T13:30:33.054Z,4.70
2023-05-15T13:33:01.452Z,10.50
2023-05-15T13:35:29.605Z,15.15
2023-05-15T13:37:57.757Z,10.52
2023-05-15T13:40:27.290Z,6.43
2023-05-15T13:42:55.431Z,2.43
2023-05-15T13:45:23.066Z,2.13
2023-05-15T13:47:52.119Z,1.25
2023-05-15T13:50:19.803Z,2.28
2023-05-15T13:52:48.473Z,6.10
2023-05-15T13:55:16.217Z,2.10
2023-05-15T13:57:45.416Z,4.32
2023-05-15T14:00:14.295Z,1.67
2023-05-15T14:02:42.987Z,1.88
2023-05-15T14:05:14.479Z,2.00
2023-05-15T14:07:42.840Z,2.30
2023-05-15T14:10:11.621Z,2.00
2023-05-15T14:12:40.196Z,3.00
2023-05-15T14:15:11.887Z,4.90
2023-05-15T14:17:39.621Z,3.72
2023-05-15T14:20:09.348Z,6.22
2023-05-15T14:22:37.111Z,8.03
2023-05-15T14:25:05.383Z,6.50
2023-05-15T14:27:33.412Z,3.55
2023-05-15T14:30:01.551Z,7.30
2023-05-15T14:32:30.903Z,5.38
2023-05-15T14:35:00.016Z,3.58
2023-05-15T14:37:28.632Z,4.97
2023-05-15T14:39:56.312Z,3.30
2023-05-15T14:42:24.368Z,4.18
2023-05-15T14:44:51.985Z,3.40
2023-05-15T14:47:20.071Z,3.63
2023-05-15T14:49:49.104Z,11.18
2023-05-15T14:52:17.890Z,6.28
2023-05-15T14:54:51.199Z,7.82
2023-05-15T14:57:25.272Z,4.35
2023-05-15T14:59:52.970Z,5.47
2023-05-15T15:02:20.641Z,4.57
2023-05-15T15:04:50.119Z,4.30
2023-05-15T15:07:17.714Z,4.25
2023-05-15T15:09:45.771Z,4.00
2023-05-15T15:12:13.423Z,3.58
2023-05-15T15:14:41.094Z,3.83
2023-05-15T15:17:09.094Z,3.78
2023-05-15T15:19:36.780Z,3.45
2023-05-15T15:22:06.720Z,3.33
2023-05-15T15:24:34.345Z,4.72
2023-05-15T15:27:01.926Z,3.53
2023-05-15T15:29:29.999Z,3.25
2023-05-15T15:31:57.739Z,3.40
2023-05-15T15:34:26.094Z,3.25
2023-05-15T15:36:53.723Z,3.30
2023-05-15T15:39:22.764Z,3.53
2023-05-15T15:41:50.916Z,3.10
2023-05-15T15:44:18.569Z,3.50
2023-05-15T15:46:46.575Z,4.07
2023-05-15T15:49:14.235Z,6.80
2023-05-15T15:51:43.026Z,4.32
2023-05-15T15:54:10.719Z,5.07
2023-05-15T15:56:40.240Z,4.10
2023-05-15T15:59:08.283Z,3.75
2023-05-15T16:01:35.999Z,7.57
2023-05-15T16:04:03.720Z,4.82
2023-05-15T16:06:32.353Z,5.05
2023-05-15T16:09:00.205Z,4.63
2023-05-15T16:11:29.796Z,3.80
2023-05-15T16:13:59.327Z,5.03
2023-05-15T16:16:27.471Z,4.32
2023-05-15T16:18:55.199Z,4.60
2023-05-15T16:21:23.122Z,5.00
2023-05-15T16:23:51.194Z,5.80
2023-05-15T16:26:19.376Z,7.53
2023-05-15T16:28:47.050Z,5.75
2023-05-15T16:31:17.943Z,4.15
2023-05-15T16:33:45.895Z,5.63
2023-05-15T16:36:14.040Z,4.72
2023-05-15T16:38:42.143Z,5.30
2023-05-15T16:41:09.808Z,4.55
2023-05-15T16:43:38.662Z,6.13
2023-05-15T16:46:07.112Z,4.53
2023-05-15T16:48:36.128Z,5.50
2023-05-15T16:51:03.759Z,4.60
2023-05-15T16:53:31.838Z,5.43
2023-05-15T16:56:00.073Z,6.97
2023-05-15T16:58:27.733Z,3.58
2023-05-15T17:00:55.768Z,6.63
2023-05-15T17:03:23.583Z,6.93
2023-05-15T17:05:52.958Z,7.00
2023-05-15T17:08:20.612Z,4.28
2023-05-15T17:10:49.419Z,4.80
2023-05-15T17:13:17.071Z,5.22
2023-05-15T17:15:47.495Z,4.32
2023-05-15T17:18:15.550Z,5.63
2023-05-15T17:20:43.264Z,4.45
2023-05-15T17:23:12.805Z,3.72
2023-05-15T17:25:40.429Z,4.35
2023-05-15T17:28:08.035Z,4.00
2023-05-15T17:30:36.121Z,6.82
2023-05-15T17:33:03.960Z,4.93
2023-05-15T17:35:33.228Z,4.28
2023-05-15T17:38:01.625Z,6.38
2023-05-15T17:40:30.700Z,6.53
2023-05-15T17:42:58.297Z,4.80
2023-05-15T17:45:27.259Z,4.57
2023-05-15T17:48:02.047Z,4.40
2023-05-15T17:50:30.095Z,7.53
2023-05-15T17:52:57.765Z,6.40
2023-05-15T17:55:26.529Z,4.25
2023-05-15T17:57:55.607Z,4.68
2023-05-15T18:00:24.250Z,4.88
2023-05-15T18:02:52.030Z,5.13
2023-05-15T18:05:19.793Z,5.72
2023-05-15T18:07:48.466Z,4.80
2023-05-15T18:10:16.060Z,5.82
2023-05-15T18:12:44.694Z,4.75
2023-05-15T18:15:13.791Z,3.75
2023-05-15T18:17:41.470Z,4.32
2023-05-15T18:20:10.622Z,4.95
2023-05-15T18:22:38.264Z,6.28
2023-05-15T18:25:06.736Z,3.58
2023-05-15T18:27:35.059Z,4.47
2023-05-15T18:30:02.983Z,6.75
2023-05-15T18:32:32.022Z,5.72
2023-05-15T18:35:01.009Z,9.32
2023-05-15T18:37:28.638Z,5.85
2023-05-15T18:39:57.404Z,3.83
2023-05-15T18:42:26.007Z,5.97
2023-05-15T18:44:53.654Z,4.07
2023-05-15T18:47:22.205Z,4.82
2023-05-15T18:49:51.234Z,7.75
2023-05-15T18:52:19.941Z,3.20
2023-05-15T18:54:48.590Z,3.15
2023-05-15T18:57:16.566Z,3.90
2023-05-15T18:59:44.441Z,7.38
2023-05-15T19:02:12.569Z,4.65
2023-05-15T19:04:40.309Z,3.40
2023-05-15T19:07:09.384Z,5.30
2023-05-15T19:09:37.357Z,6.55
2023-05-15T19:12:05.379Z,5.00
2023-05-15T19:14:33.911Z,3.47
2023-05-15T19:17:02.014Z,5.50
2023-05-15T19:19:30.305Z,3.63
2023-05-15T19:21:58.276Z,3.40
2023-05-15T19:24:27.312Z,5.15
2023-05-15T19:26:55.581Z,3.92
2023-05-15T19:29:23.246Z,5.93
2023-05-15T19:31:51.080Z,5.63
2023-05-15T19:34:19.619Z,4.82
2023-05-15T19:36:50.594Z,5.95
2023-05-15T19:39:18.503Z,4.90
2023-05-15T19:41:48.138Z,7.03
2023-05-15T19:44:16.164Z,5.47
2023-05-15T19:46:45.532Z,5.32
2023-05-15T19:49:14.081Z,5.40
2023-05-15T19:51:42.079Z,6.70
2023-05-15T19:54:12.108Z,4.28
2023-05-15T19:56:39.810Z,3.80
2023-05-15T19:59:08.903Z,4.60
2023-05-15T20:01:36.973Z,6.13
2023-05-15T20:04:04.790Z,6.85
2023-05-15T20:06:33.490Z,8.38
2023-05-15T20:09:01.111Z,6.70
2023-05-15T20:11:28.807Z,5.05
2023-05-15T20:13:56.837Z,4.32
2023-05-15T20:16:25.882Z,8.32
2023-05-15T20:18:55.023Z,5.55
2023-05-15T20:21:23.100Z,4.78
2023-05-15T20:23:51.096Z,6.03
2023-05-15T20:26:19.911Z,4.32
2023-05-15T20:28:47.924Z,7.75
2023-05-15T20:31:16.230Z,4.07
2023-05-15T20:33:45.768Z,5.80
2023-05-15T20:36:13.885Z,4.80
2023-05-15T20:38:41.564Z,5.70
2023-05-15T20:41:09.673Z,8.65
2023-05-15T20:43:38.411Z,4.22
2023-05-15T20:46:09.115Z,5.25
2023-05-15T20:48:37.285Z,4.35
2023-05-15T20:51:06.362Z,4.68
2023-05-15T20:53:34.460Z,7.82
2023-05-15T20:56:03.180Z,4.78
2023-05-15T20:58:31.123Z,7.13
2023-05-15T21:01:01.367Z,4.80
2023-05-15T21:03:30.199Z,7.95
2023-05-15T21:05:58.082Z,6.57
2023-05-15T21:08:28.439Z,5.35
2023-05-15T21:10:56.261Z,3.97
2023-05-15T21:13:23.956Z,5.22
2023-05-15T21:15:51.917Z,8.25
2023-05-15T21:18:19.754Z,5.10
2023-05-15T21:20:47.778Z,4.78
2023-05-15T21:23:16.321Z,7.50
2023-05-15T21:25:45.432Z,8.13
2023-05-15T21:28:13.632Z,6.13
2023-05-15T21:30:41.330Z,4.55
2023-05-15T21:33:09.149Z,7.40
2023-05-15T21:35:38.037Z,6.13
2023-05-15T21:38:05.821Z,4.82
2023-05-15T21:40:33.446Z,4.70
2023-05-15T21:43:02.542Z,7.43
2023-05-15T21:45:30.764Z,7.95
2023-05-15T21:47:58.589Z,5.63
2023-05-15T21:50:27.845Z,4.43
2023-05-15T21:52:55.911Z,8.15
2023-05-15T21:55:23.620Z,8.20
2023-05-15T21:57:51.731Z,4.85
2023-05-15T22:00:21.257Z,4.80
2023-05-15T22:02:49.064Z,8.38
2023-05-15T22:05:18.895Z,4.40
2023-05-15T22:07:46.543Z,7.77
2023-05-15T22:10:16.418Z,8.52
2023-05-15T22:12:44.683Z,5.70
2023-05-15T22:15:14.384Z,4.57
2023-05-15T22:17:43.581Z,5.90
2023-05-15T22:20:13.507Z,6.03
2023-05-15T22:22:43.088Z,5.68
2023-05-15T22:25:11.101Z,6.57
2023-05-15T22:27:39.226Z,5.88
2023-05-15T22:30:08.627Z,7.72
2023-05-15T22:32:36.588Z,5.65
2023-05-15T22:35:06.390Z,7.35
2023-05-15T22:37:34.349Z,5.93
2023-05-15T22:40:02.313Z,5.32
2023-05-15T22:42:30.323Z,6.50
2023-05-15T22:44:58.268Z,5.30
2023-05-15T22:47:28.558Z,6.43
2023-05-15T22:49:56.540Z,7.05
2023-05-15T22:52:26.270Z,5.00
2023-05-15T22:54:53.888Z,5.30
2023-05-15T22:57:21.814Z,4.88
2023-05-15T22:59:49.498Z,5.28
2023-05-15T23:02:17.542Z,5.90
2023-05-15T23:04:45.270Z,5.72
2023-05-15T23:07:13.123Z,5.60
2023-05-15T23:09:42.489Z,5.95
2023-05-15T23:12:10.345Z,6.18
2023-05-15T23:14:38.396Z,11.45
2023-05-15T23:17:06.245Z,9.63
2023-05-15T23:19:34.191Z,9.10
2023-05-15T23:22:02.124Z,7.07
2023-05-15T23:24:30.142Z,9.38
2023-05-15T23:26:59.143Z,5.22
2023-05-15T23:29:27.441Z,7.05
2023-05-15T23:31:56.957Z,6.63
2023-05-15T23:34:25.765Z,6.20
2023-05-15T23:36:53.751Z,9.75
2023-05-15T23:39:21.473Z,7.05
2023-05-15T23:41:49.575Z,6.63
2023-05-15T23:44:18.799Z,10.95
2023-05-15T23:46:46.550Z,12.00
2023-05-15T23:49:14.685Z,8.00
2023-05-15T23:51:43.580Z,11.50
2023-05-15T23:54:11.554Z,12.15
2023-05-15T23:56:39.468Z,8.65
2023-05-15T23:59:07.508Z,7.55
